createdAt,value
2018-05-06T00:01:18.592Z,3.00
2018-05-06T00:03:46.892Z,2.50
2018-05-06T00:06:15.158Z,2.60
2018-05-06T00:08:43.447Z,2.73
2018-05-06T00:11:12.485Z,2.60
2018-05-06T00:13:40.813Z,2.37
2018-05-06T00:16:09.901Z,2.70
2018-05-06T00:18:38.245Z,2.53
2018-05-06T00:21:06.552Z,2.63
2018-05-06T00:23:35.617Z,2.60
2018-05-06T00:26:03.901Z,2.97
2018-05-06T00:28:32.225Z,2.93
2018-05-06T00:31:01.661Z,2.63
2018-05-06T00:33:29.960Z,2.53
2018-05-06T00:35:58.240Z,2.77
2018-05-06T00:38:26.533Z,2.90
2018-05-06T00:40:55.593Z,2.73
2018-05-06T00:43:23.865Z,3.13
2018-05-06T00:45:52.166Z,2.70
2018-05-06T00:48:20.562Z,2.97
2018-05-06T00:50:49.741Z,2.80
2018-05-06T00:53:17.997Z,3.17
2018-05-06T00:55:46.298Z,3.20
2018-05-06T00:58:15.366Z,2.70
2018-05-06T01:00:43.650Z,3.10
2018-05-06T01:03:11.924Z,3.10
2018-05-06T01:05:40.238Z,3.20
2018-05-06T01:08:08.554Z,2.83
2018-05-06T01:10:36.854Z,2.67
2018-05-06T01:13:05.167Z,3.17
2018-05-06T01:15:33.432Z,3.13
2018-05-06T01:18:02.492Z,3.23
2018-05-06T01:20:30.784Z,2.90
2018-05-06T01:22:59.069Z,3.00
2018-05-06T01:25:27.431Z,3.10
2018-05-06T01:27:55.788Z,2.97
2018-05-06T01:30:24.064Z,3.20
2018-05-06T01:32:52.347Z,3.30
2018-05-06T01:35:20.729Z,3.23
2018-05-06T01:37:49.019Z,3.03
2018-05-06T01:40:18.071Z,3.27
2018-05-06T01:42:46.361Z,3.10
2018-05-06T01:45:14.641Z,2.90
2018-05-06T01:47:42.948Z,3.23
2018-05-06T01:50:11.980Z,3.33
2018-05-06T01:52:40.412Z,3.03
2018-05-06T01:55:08.699Z,2.80
2018-05-06T01:57:37.745Z,3.00
2018-05-06T02:00:06.029Z,3.17
2018-05-06T02:02:34.321Z,2.87
2018-05-06T02:05:02.590Z,3.20
2018-05-06T02:07:30.882Z,2.83
2018-05-06T02:09:59.173Z,2.67
2018-05-06T02:12:28.261Z,3.50
2018-05-06T02:14:57.382Z,3.63
2018-05-06T02:17:25.665Z,3.10
2018-05-06T02:19:53.994Z,3.33
2018-05-06T02:22:22.325Z,3.07
2018-05-06T02:24:50.579Z,3.00
2018-05-06T02:27:19.610Z,3.23
2018-05-06T02:29:47.904Z,2.80
2018-05-06T02:32:16.184Z,3.10
2018-05-06T02:34:44.503Z,3.27
2018-05-06T02:37:14.703Z,3.40
2018-05-06T02:39:43.067Z,3.93
2018-05-06T02:42:11.349Z,3.30
2018-05-06T02:44:39.703Z,3.50
2018-05-06T02:47:08.020Z,3.07
2018-05-06T02:49:37.077Z,3.40
2018-05-06T02:52:05.387Z,3.20
2018-05-06T02:54:33.763Z,3.60
2018-05-06T02:57:02.816Z,3.30
2018-05-06T02:59:31.198Z,3.67
2018-05-06T03:01:59.499Z,3.63
2018-05-06T03:04:27.800Z,3.13
2018-05-06T03:06:56.088Z,3.20
2018-05-06T03:09:24.357Z,3.30
2018-05-06T03:11:52.633Z,3.77
2018-05-06T03:14:20.933Z,3.73
2018-05-06T03:16:49.392Z,3.20
2018-05-06T03:19:17.683Z,3.70
2018-05-06T03:21:45.957Z,3.50
2018-05-06T03:24:14.241Z,4.20
2018-05-06T03:26:42.517Z,4.17
2018-05-06T03:29:10.812Z,4.23
2018-05-06T03:31:39.109Z,4.17
2018-05-06T03:34:08.182Z,3.70
2018-05-06T03:36:36.454Z,3.60
2018-05-06T03:39:04.757Z,3.70
2018-05-06T03:41:33.051Z,3.87
2018-05-06T03:44:01.343Z,4.20
2018-05-06T03:46:29.783Z,4.23
2018-05-06T03:49:01.519Z,4.53
2018-05-06T03:51:29.801Z,3.73
2018-05-06T03:53:58.095Z,4.13
2018-05-06T03:56:57.727Z,3.90
2018-05-06T03:59:37.937Z,4.17
2018-05-06T04:05:20.117Z,3.87
2018-05-06T04:07:48.478Z,4.03
2018-05-06T04:10:16.815Z,4.33
2018-05-06T04:12:45.053Z,4.33
2018-05-06T04:15:13.908Z,3.87
2018-05-06T04:17:42.910Z,3.93
2018-05-06T04:20:11.152Z,4.23
2018-05-06T04:22:40.179Z,4.30
2018-05-06T04:25:08.426Z,4.80
2018-05-06T04:27:37.539Z,4.20
2018-05-06T04:30:05.789Z,4.37
2018-05-06T04:32:34.809Z,4.37
2018-05-06T04:35:03.070Z,4.40
2018-05-06T04:37:32.102Z,4.30
2018-05-06T04:40:02.958Z,4.13
2018-05-06T04:42:31.263Z,4.10
2018-05-06T04:44:59.531Z,4.10
2018-05-06T04:47:28.685Z,3.83
2018-05-06T04:49:56.931Z,3.70
2018-05-06T04:52:25.181Z,3.80
2018-05-06T04:54:54.206Z,4.70
2018-05-06T04:57:22.470Z,4.37
2018-05-06T04:59:50.809Z,3.70
2018-05-06T05:02:19.077Z,3.80
2018-05-06T05:04:47.326Z,4.20
2018-05-06T05:07:15.606Z,3.97
2018-05-06T05:09:43.858Z,4.03
2018-05-06T05:12:12.118Z,4.13
2018-05-06T05:14:40.362Z,3.60
2018-05-06T05:17:11.029Z,4.23
2018-05-06T05:19:40.849Z,4.23
2018-05-06T05:22:09.106Z,4.43
2018-05-06T05:24:37.616Z,4.30
2018-05-06T05:27:06.051Z,3.90
2018-05-06T05:29:35.090Z,4.17
2018-05-06T05:32:03.406Z,4.13
2018-05-06T05:34:31.732Z,3.70
2018-05-06T05:36:59.985Z,4.20
2018-05-06T05:39:28.273Z,3.90
2018-05-06T05:41:56.540Z,4.13
2018-05-06T05:44:24.782Z,4.13
2018-05-06T05:46:53.024Z,3.90
2018-05-06T05:49:21.292Z,3.77
2018-05-06T05:51:49.557Z,3.50
2018-05-06T05:54:17.875Z,3.67
2018-05-06T05:56:46.096Z,3.80
2018-05-06T05:59:14.362Z,3.77
2018-05-06T06:01:42.779Z,3.80
2018-05-06T06:04:11.052Z,4.07
2018-05-06T06:06:39.470Z,3.80
2018-05-06T06:09:08.964Z,4.03
2018-05-06T06:11:37.690Z,3.93
2018-05-06T06:14:05.937Z,3.73
2018-05-06T06:16:35.125Z,3.80
2018-05-06T06:19:04.145Z,3.73
2018-05-06T06:21:32.422Z,3.70
2018-05-06T06:24:00.758Z,3.40
2018-05-06T06:26:29.827Z,3.73
2018-05-06T06:28:58.098Z,4.13
2018-05-06T06:31:26.315Z,3.73
2018-05-06T06:33:55.364Z,3.33
2018-05-06T06:36:23.709Z,3.23
2018-05-06T06:38:52.007Z,3.13
2018-05-06T06:41:20.277Z,3.57
2018-05-06T06:43:48.581Z,3.03
2018-05-06T06:46:16.837Z,3.07
2018-05-06T06:48:45.240Z,3.20
2018-05-06T06:51:13.654Z,3.03
2018-05-06T06:53:41.991Z,3.20
2018-05-06T06:56:10.209Z,2.77
2018-05-06T06:58:39.298Z,2.93
2018-05-06T07:01:08.344Z,3.17
2018-05-06T07:03:36.617Z,2.70
2018-05-06T07:06:05.060Z,2.80
2018-05-06T07:08:33.392Z,3.00
2018-05-06T07:11:02.437Z,3.07
2018-05-06T07:13:30.699Z,2.87
2018-05-06T07:15:58.976Z,2.87
2018-05-06T07:18:28.005Z,2.87
2018-05-06T07:20:56.279Z,2.30
2018-05-06T07:23:24.520Z,3.00
2018-05-06T07:25:52.851Z,2.30
2018-05-06T07:28:21.156Z,2.40
2018-05-06T07:30:49.360Z,2.40
2018-05-06T07:33:17.615Z,2.70
2018-05-06T07:35:45.962Z,2.27
2018-05-06T07:38:14.927Z,1.87
2018-05-06T07:40:43.314Z,2.40
2018-05-06T07:43:11.600Z,2.10
2018-05-06T07:45:40.736Z,2.03
2018-05-06T07:48:09.049Z,2.10
2018-05-06T07:50:37.290Z,2.20
2018-05-06T07:53:05.558Z,2.30
2018-05-06T07:55:33.852Z,2.00
2018-05-06T07:58:02.123Z,2.13
2018-05-06T08:00:30.405Z,2.10
2018-05-06T08:03:00.627Z,2.13
2018-05-06T08:05:28.866Z,2.13
2018-05-06T08:07:57.900Z,2.00
2018-05-06T08:10:26.176Z,2.13
2018-05-06T08:12:54.462Z,2.20
2018-05-06T08:15:22.716Z,2.27
2018-05-06T08:17:50.979Z,1.90
2018-05-06T08:20:19.258Z,5.60
2018-05-06T08:22:47.580Z,1.70
2018-05-06T08:25:17.322Z,1.97
2018-05-06T08:27:45.573Z,2.40
2018-05-06T08:30:14.609Z,2.50
2018-05-06T08:32:42.857Z,2.53
2018-05-06T08:35:11.895Z,2.17
2018-05-06T08:37:40.357Z,2.03
2018-05-06T08:40:08.578Z,2.10
2018-05-06T08:42:36.828Z,2.10
2018-05-06T08:45:05.129Z,2.50
2018-05-06T08:47:33.356Z,1.90
2018-05-06T08:50:01.630Z,2.37
2018-05-06T08:52:29.894Z,2.07
2018-05-06T08:54:58.193Z,2.20
2018-05-06T08:57:26.442Z,1.90
2018-05-06T08:59:54.994Z,2.20
2018-05-06T09:02:23.386Z,2.10
2018-05-06T09:04:51.649Z,2.00
2018-05-06T09:07:20.677Z,1.90
2018-05-06T09:09:48.943Z,2.40
2018-05-06T09:12:17.220Z,2.10
2018-05-06T09:14:45.491Z,2.03
2018-05-06T09:17:13.832Z,2.30
2018-05-06T09:19:42.127Z,2.70
2018-05-06T09:22:10.399Z,2.50
2018-05-06T09:24:40.165Z,3.10
2018-05-06T09:27:08.484Z,2.90
2018-05-06T09:29:37.521Z,2.40
2018-05-06T09:32:05.786Z,2.53
2018-05-06T09:34:34.061Z,2.47
2018-05-06T09:37:02.346Z,2.50
2018-05-06T09:39:30.615Z,2.63
2018-05-06T09:41:58.884Z,3.10
2018-05-06T09:44:27.169Z,2.90
2018-05-06T09:46:55.435Z,2.17
2018-05-06T09:49:23.731Z,2.87
2018-05-06T09:51:53.433Z,2.40
2018-05-06T09:54:21.706Z,2.40
2018-05-06T09:56:49.996Z,2.33
2018-05-06T09:59:18.286Z,2.30
2018-05-06T10:01:48.047Z,2.30
2018-05-06T10:04:16.328Z,2.60
2018-05-06T10:06:48.435Z,2.90
2018-05-06T10:09:16.665Z,2.63
2018-05-06T10:11:44.997Z,2.90
2018-05-06T10:14:14.034Z,2.67
2018-05-06T10:16:42.287Z,2.23
2018-05-06T10:19:10.576Z,2.93
2018-05-06T10:21:38.867Z,2.90
2018-05-06T10:24:07.278Z,2.87
2018-05-06T10:26:35.538Z,3.00
2018-05-06T10:29:03.845Z,2.40
2018-05-06T10:31:32.890Z,2.77
2018-05-06T10:34:01.163Z,2.70
2018-05-06T10:36:29.446Z,2.60
2018-05-06T10:38:57.745Z,2.67
2018-05-06T10:41:26.000Z,2.50
2018-05-06T10:43:54.322Z,2.50
2018-05-06T10:46:22.536Z,2.50
2018-05-06T10:48:50.806Z,2.30
2018-05-06T10:51:19.053Z,2.33
2018-05-06T10:53:47.336Z,2.53
2018-05-06T10:56:15.614Z,2.43
2018-05-06T10:58:44.648Z,2.70
2018-05-06T11:01:12.915Z,2.40
2018-05-06T11:03:41.185Z,3.00
2018-05-06T11:06:09.476Z,3.10
2018-05-06T11:08:37.753Z,2.63
2018-05-06T11:11:06.017Z,2.77
2018-05-06T11:13:34.289Z,2.80
2018-05-06T11:16:02.654Z,2.40
2018-05-06T11:18:30.916Z,2.40
2018-05-06T11:20:59.194Z,2.30
2018-05-06T11:23:27.430Z,2.77
2018-05-06T11:25:56.486Z,3.00
2018-05-06T11:28:24.792Z,2.60
2018-05-06T11:30:53.043Z,2.60
2018-05-06T11:33:21.414Z,3.40
2018-05-06T11:35:49.628Z,2.70
2018-05-06T11:38:17.926Z,3.90
2018-05-06T11:40:46.964Z,2.40
2018-05-06T11:43:15.245Z,2.33
2018-05-06T11:45:43.506Z,7.40
2018-05-06T11:48:11.807Z,6.07
2018-05-06T11:50:40.083Z,8.93
2018-05-06T11:53:08.333Z,3.50
2018-05-06T11:55:36.595Z,8.03
2018-05-06T11:58:05.059Z,4.50
2018-05-06T12:00:33.520Z,2.50
2018-05-06T12:03:03.877Z,2.57
2018-05-06T12:05:32.128Z,2.20
2018-05-06T12:08:00.425Z,2.77
2018-05-06T12:10:28.706Z,2.57
2018-05-06T12:12:56.974Z,2.30
2018-05-06T12:15:25.218Z,2.47
2018-05-06T12:17:53.507Z,2.00
2018-05-06T12:20:21.795Z,2.40
2018-05-06T12:22:50.061Z,2.03
2018-05-06T12:25:18.331Z,2.30
2018-05-06T12:27:49.973Z,2.20
2018-05-06T12:30:19.004Z,2.07
2018-05-06T12:32:47.413Z,1.80
2018-05-06T12:35:15.649Z,2.00
2018-05-06T12:37:43.951Z,2.03
2018-05-06T12:40:12.180Z,2.40
2018-05-06T12:42:40.565Z,2.33
2018-05-06T12:45:08.847Z,2.40
2018-05-06T12:47:37.093Z,1.77
2018-05-06T12:50:05.519Z,2.10
2018-05-06T12:52:33.776Z,2.10
2018-05-06T12:55:02.170Z,2.33
2018-05-06T12:57:30.444Z,1.93
2018-05-06T12:59:58.710Z,1.83
2018-05-06T13:02:27.041Z,2.00
2018-05-06T13:04:55.236Z,1.80
2018-05-06T13:07:23.506Z,1.83
2018-05-06T13:09:51.800Z,1.87
2018-05-06T13:12:20.046Z,2.10
2018-05-06T13:14:48.321Z,1.90
2018-05-06T13:17:17.391Z,1.83
2018-05-06T13:19:45.607Z,2.07
2018-05-06T13:22:13.857Z,2.30
2018-05-06T13:24:42.913Z,2.60
2018-05-06T13:27:11.149Z,2.37
2018-05-06T13:29:39.433Z,4.50
2018-05-06T13:32:07.728Z,3.07
2018-05-06T13:34:36.088Z,3.33
2018-05-06T13:37:04.344Z,5.53
2018-05-06T13:39:32.578Z,3.07
2018-05-06T13:42:02.498Z,2.63
2018-05-06T13:44:30.786Z,5.07
2018-05-06T13:46:59.068Z,3.00
2018-05-06T13:49:28.086Z,2.10
2018-05-06T13:51:56.358Z,1.90
2018-05-06T13:54:24.613Z,1.87
2018-05-06T13:56:52.853Z,1.87
2018-05-06T13:59:21.905Z,1.80
2018-05-06T14:01:50.166Z,1.80
2018-05-06T14:04:18.430Z,2.20
2018-05-06T14:06:48.325Z,1.90
2018-05-06T14:09:17.378Z,1.97
2018-05-06T14:11:45.660Z,1.90
2018-05-06T14:14:13.901Z,1.77
2018-05-06T14:16:42.178Z,1.63
2018-05-06T14:19:10.472Z,1.97
2018-05-06T14:21:38.844Z,1.67
2018-05-06T14:24:07.848Z,1.60
2018-05-06T14:26:36.101Z,1.80
2018-05-06T14:29:06.074Z,1.50
2018-05-06T14:31:35.170Z,2.07
2018-05-06T14:34:03.498Z,1.80
2018-05-06T14:36:31.778Z,1.63
2018-05-06T14:39:00.062Z,1.67
2018-05-06T14:41:28.312Z,1.60
2018-05-06T14:43:56.605Z,1.50
2018-05-06T14:46:36.714Z,1.33
2018-05-06T14:49:05.761Z,1.60
2018-05-06T14:51:35.064Z,1.50
2018-05-06T14:54:03.336Z,1.50
2018-05-06T14:56:32.378Z,1.77
2018-05-06T14:59:00.663Z,1.63
2018-05-06T15:01:29.005Z,1.60
2018-05-06T15:03:57.307Z,1.80
2018-05-06T15:06:25.556Z,1.90
2018-05-06T15:08:54.617Z,1.43
2018-05-06T15:11:22.882Z,1.60
2018-05-06T15:13:51.261Z,1.50
2018-05-06T15:16:19.465Z,1.50
2018-05-06T15:18:47.747Z,1.60
2018-05-06T15:21:16.899Z,1.80
2018-05-06T15:23:45.198Z,1.53
2018-05-06T15:26:13.434Z,1.50
2018-05-06T15:28:41.683Z,1.40
2018-05-06T15:31:09.990Z,1.30
2018-05-06T15:33:38.237Z,1.37
2018-05-06T15:36:06.511Z,1.60
2018-05-06T15:38:35.529Z,1.40
2018-05-06T15:41:03.871Z,1.53
2018-05-06T15:43:32.097Z,2.20
2018-05-06T15:46:00.367Z,1.83
2018-05-06T15:48:28.657Z,2.03
2018-05-06T15:50:56.976Z,1.57
2018-05-06T15:53:26.087Z,1.30
2018-05-06T15:55:55.133Z,1.83
2018-05-06T15:58:23.418Z,1.37
2018-05-06T16:00:52.329Z,2.10
2018-05-06T16:03:33.416Z,1.60
2018-05-06T16:06:01.693Z,2.03
2018-05-06T16:08:29.954Z,1.33
2018-05-06T16:10:58.281Z,1.37
2018-05-06T16:13:26.554Z,1.40
2018-05-06T16:15:54.847Z,1.33
2018-05-06T16:18:23.102Z,1.60
2018-05-06T16:20:51.382Z,1.80
2018-05-06T16:23:19.625Z,1.70
2018-05-06T16:25:47.883Z,2.07
2018-05-06T16:28:17.002Z,1.67
2018-05-06T16:30:45.273Z,1.53
2018-05-06T16:33:13.554Z,1.50
2018-05-06T16:35:41.811Z,1.67
2018-05-06T16:38:10.087Z,1.60
2018-05-06T16:40:38.370Z,1.80
2018-05-06T16:43:06.729Z,1.63
2018-05-06T16:45:35.194Z,1.83
2018-05-06T16:48:04.270Z,1.77
2018-05-06T16:50:32.550Z,1.90
2018-05-06T16:53:00.853Z,1.73
2018-05-06T16:55:29.261Z,1.53
2018-05-06T16:57:57.726Z,1.60
2018-05-06T17:00:26.145Z,1.73
2018-05-06T17:02:55.951Z,1.93
2018-05-06T17:05:24.209Z,1.87
2018-05-06T17:07:52.503Z,1.93
2018-05-06T17:10:20.765Z,1.57
2018-05-06T17:12:49.266Z,1.83
2018-05-06T17:15:18.234Z,1.57
2018-05-06T17:17:46.512Z,1.53
2018-05-06T17:20:14.769Z,1.40
2018-05-06T17:22:43.068Z,1.70
2018-05-06T17:25:11.351Z,1.53
2018-05-06T17:27:39.651Z,1.53
2018-05-06T17:30:08.327Z,1.70
2018-05-06T17:32:36.583Z,1.40
2018-05-06T17:35:04.915Z,1.60
2018-05-06T17:37:33.199Z,1.67
2018-05-06T17:40:01.487Z,1.83
2018-05-06T17:42:29.773Z,1.70
2018-05-06T17:44:59.598Z,1.50
2018-05-06T17:47:29.452Z,1.63
2018-05-06T17:49:58.513Z,2.17
2018-05-06T17:52:27.566Z,1.83
2018-05-06T17:54:55.875Z,1.60
2018-05-06T17:57:24.166Z,1.70
2018-05-06T17:59:52.439Z,1.90
2018-05-06T18:02:20.819Z,8.83
2018-05-06T18:04:49.113Z,5.90
2018-05-06T18:07:18.176Z,2.03
2018-05-06T18:09:46.439Z,12.27
2018-05-06T18:12:14.746Z,2.13
2018-05-06T18:14:43.216Z,1.77
2018-05-06T18:17:12.551Z,1.90
2018-05-06T18:19:40.861Z,2.07
2018-05-06T18:22:09.237Z,1.90
2018-05-06T18:24:37.569Z,2.20
2018-05-06T18:27:07.349Z,2.20
2018-05-06T18:29:35.761Z,3.33
2018-05-06T18:32:04.847Z,3.13
2018-05-06T18:34:33.118Z,2.03
2018-05-06T18:37:02.182Z,1.70
2018-05-06T18:39:30.467Z,1.60
2018-05-06T18:41:58.755Z,1.70
2018-05-06T18:44:27.014Z,1.80
2018-05-06T18:46:55.328Z,1.83
2018-05-06T18:49:23.564Z,1.77
2018-05-06T18:51:51.840Z,1.90
2018-05-06T18:54:20.103Z,1.90
2018-05-06T18:56:48.379Z,1.80
2018-05-06T18:59:16.645Z,1.60
2018-05-06T19:01:44.932Z,1.70
2018-05-06T19:04:13.320Z,2.03
2018-05-06T19:06:41.571Z,1.80
2018-05-06T19:09:09.870Z,1.67
2018-05-06T19:11:38.130Z,1.67
2018-05-06T19:14:06.444Z,1.50
2018-05-06T19:16:35.673Z,1.60
2018-05-06T19:19:03.990Z,1.90
2018-05-06T19:21:32.268Z,1.53
2018-05-06T19:24:00.576Z,1.47
2018-05-06T19:26:29.636Z,1.60
2018-05-06T19:28:57.916Z,1.40
2018-05-06T19:31:28.250Z,1.53
2018-05-06T19:33:58.030Z,1.67
2018-05-06T19:36:26.294Z,1.77
2018-05-06T19:38:54.573Z,1.93
2018-05-06T19:41:23.137Z,1.67
2018-05-06T19:43:52.127Z,1.83
2018-05-06T19:46:20.418Z,1.90
2018-05-06T19:48:48.744Z,1.90
2018-05-06T19:51:17.072Z,1.80
2018-05-06T19:53:46.150Z,1.83
2018-05-06T19:56:14.414Z,2.10
2018-05-06T19:58:43.475Z,1.80
2018-05-06T20:01:12.518Z,1.97
2018-05-06T20:03:40.886Z,1.83
2018-05-06T20:06:09.314Z,1.80
2018-05-06T20:08:37.578Z,1.60
2018-05-06T20:11:05.901Z,1.80
2018-05-06T20:13:34.195Z,1.90
2018-05-06T20:16:02.494Z,1.70
2018-05-06T20:18:30.722Z,1.90
2018-05-06T20:20:58.987Z,1.80
2018-05-06T20:23:27.599Z,1.77
2018-05-06T20:25:55.902Z,1.63
2018-05-06T20:28:24.182Z,2.43
2018-05-06T20:30:52.480Z,1.70
2018-05-06T20:33:22.007Z,2.10
2018-05-06T20:35:51.225Z,1.70
2018-05-06T20:38:19.519Z,1.90
2018-05-06T20:40:47.746Z,1.70
2018-05-06T20:43:15.994Z,1.47
2018-05-06T20:45:44.265Z,1.50
2018-05-06T20:48:12.564Z,1.40
2018-05-06T20:50:40.794Z,1.80
2018-05-06T20:53:09.062Z,2.00
2018-05-06T20:55:37.413Z,1.90
2018-05-06T20:58:06.477Z,1.97
2018-05-06T21:00:34.741Z,1.60
2018-05-06T21:03:02.958Z,2.07
2018-05-06T21:05:31.294Z,2.07
2018-05-06T21:07:59.533Z,1.80
2018-05-06T21:10:27.909Z,1.83
2018-05-06T21:12:56.161Z,1.63
2018-05-06T21:15:24.398Z,1.87
2018-05-06T21:17:52.634Z,1.70
2018-05-06T21:20:20.895Z,1.70
2018-05-06T21:22:49.218Z,1.70
2018-05-06T21:25:17.530Z,2.00
2018-05-06T21:27:45.910Z,1.90
2018-05-06T21:30:14.177Z,1.87
2018-05-06T21:32:43.216Z,1.90
2018-05-06T21:35:11.473Z,1.87
2018-05-06T21:37:39.765Z,1.80
2018-05-06T21:40:09.042Z,1.97
2018-05-06T21:42:37.412Z,1.80
2018-05-06T21:45:05.659Z,1.77
2018-05-06T21:47:34.706Z,1.80
2018-05-06T21:50:02.982Z,1.97
2018-05-06T21:52:31.235Z,1.80
2018-05-06T21:54:59.487Z,1.87
2018-05-06T21:57:27.745Z,2.10
2018-05-06T21:59:57.642Z,1.77
2018-05-06T22:02:25.861Z,2.10
2018-05-06T22:04:54.105Z,2.00
2018-05-06T22:07:23.180Z,2.23
2018-05-06T22:09:51.427Z,2.20
2018-05-06T22:12:19.680Z,2.33
2018-05-06T22:14:48.705Z,1.80
2018-05-06T22:17:18.524Z,1.77
2018-05-06T22:19:46.761Z,2.27
2018-05-06T22:22:15.064Z,2.47
2018-05-06T22:24:43.361Z,2.43
2018-05-06T22:27:11.591Z,2.33
2018-05-06T22:29:39.844Z,2.07
2018-05-06T22:32:08.118Z,2.00
2018-05-06T22:34:37.126Z,2.03
2018-05-06T22:37:05.377Z,2.27
2018-05-06T22:39:34.409Z,2.17
2018-05-06T22:42:02.629Z,2.17
2018-05-06T22:44:30.870Z,2.23
2018-05-06T22:46:59.110Z,2.30
2018-05-06T22:49:27.386Z,2.03
2018-05-06T22:51:55.629Z,1.90
2018-05-06T22:54:24.662Z,2.03
2018-05-06T22:56:52.894Z,2.77
2018-05-06T22:59:21.141Z,2.00
2018-05-06T23:01:49.377Z,2.03
2018-05-06T23:04:17.674Z,2.13
2018-05-06T23:06:45.927Z,1.87
2018-05-06T23:09:14.189Z,2.07
2018-05-06T23:11:42.438Z,2.13
2018-05-06T23:14:11.554Z,2.40
2018-05-06T23:16:39.819Z,2.33
2018-05-06T23:19:08.986Z,2.70
2018-05-06T23:21:37.283Z,2.10
2018-05-06T23:24:05.505Z,1.80
2018-05-06T23:26:33.847Z,2.33
2018-05-06T23:29:02.026Z,2.60
2018-05-06T23:31:30.314Z,1.90
2018-05-06T23:33:58.614Z,2.37
2018-05-06T23:36:26.869Z,2.00
2018-05-06T23:38:55.166Z,2.20
2018-05-06T23:41:23.468Z,2.10
2018-05-06T23:43:51.849Z,2.63
2018-05-06T23:46:21.075Z,2.00
2018-05-06T23:48:49.365Z,1.93
2018-05-06T23:51:18.373Z,2.23
2018-05-06T23:53:47.059Z,2.20
2018-05-06T23:56:15.498Z,2.30
2018-05-06T23:58:44.560Z,1.83
